createdAt,value
2017-03-14T00:00:16.316Z,0
2017-03-14T00:01:17.570Z,0
2017-03-14T00:02:18.817Z,0
2017-03-14T00:03:20.064Z,0
2017-03-14T00:04:21.327Z,0
2017-03-14T00:05:22.586Z,0
2017-03-14T00:06:23.827Z,0
2017-03-14T00:07:25.076Z,0
2017-03-14T00:08:26.314Z,0
2017-03-14T00:09:27.609Z,0
2017-03-14T00:10:28.941Z,0
2017-03-14T00:11:30.165Z,0
2017-03-14T00:12:31.429Z,0
2017-03-14T00:13:32.668Z,0
2017-03-14T00:14:33.910Z,0
2017-03-14T00:15:35.153Z,0
2017-03-14T00:16:36.385Z,0
2017-03-14T00:17:37.626Z,0
2017-03-14T00:18:38.870Z,0
2017-03-14T00:19:40.132Z,0
2017-03-14T00:20:41.368Z,0
2017-03-14T00:21:42.603Z,0
2017-03-14T00:22:43.996Z,0
2017-03-14T00:23:45.255Z,0
2017-03-14T00:24:46.466Z,0
2017-03-14T00:25:47.698Z,0
2017-03-14T00:26:49.034Z,0
2017-03-14T00:27:50.373Z,0
2017-03-14T00:28:51.648Z,0
2017-03-14T00:29:52.887Z,0
2017-03-14T00:30:54.124Z,0
2017-03-14T00:31:55.413Z,0
2017-03-14T00:32:56.641Z,0
2017-03-14T00:33:57.881Z,0
2017-03-14T00:34:59.110Z,0
2017-03-14T00:36:00.347Z,0
2017-03-14T00:37:01.578Z,0
2017-03-14T00:38:02.838Z,0
2017-03-14T00:39:04.088Z,0
2017-03-14T00:40:05.421Z,0
2017-03-14T00:41:06.704Z,0
2017-03-14T00:42:07.944Z,0
2017-03-14T00:43:09.172Z,0
2017-03-14T00:44:10.431Z,0
2017-03-14T00:45:11.667Z,0
2017-03-14T00:46:12.898Z,0
2017-03-14T00:47:14.150Z,0
2017-03-14T00:48:15.435Z,0
2017-03-14T00:49:16.787Z,0
2017-03-14T00:50:17.961Z,0
2017-03-14T00:51:19.315Z,0
2017-03-14T00:52:20.593Z,0
2017-03-14T00:53:21.893Z,0
2017-03-14T00:54:23.161Z,0
2017-03-14T00:55:24.392Z,0
2017-03-14T00:56:25.623Z,0
2017-03-14T00:57:26.909Z,0
2017-03-14T00:58:28.121Z,0
2017-03-14T00:59:29.387Z,0
2017-03-14T01:00:30.677Z,0
2017-03-14T01:01:31.928Z,0
2017-03-14T01:02:33.174Z,0
2017-03-14T01:03:34.399Z,0
2017-03-14T01:04:35.674Z,0
2017-03-14T01:05:36.981Z,0
2017-03-14T01:06:38.231Z,0
2017-03-14T01:07:39.469Z,0
2017-03-14T01:08:40.715Z,0
2017-03-14T01:09:41.952Z,0
2017-03-14T01:10:43.209Z,0
2017-03-14T01:11:44.465Z,0
2017-03-14T01:12:45.749Z,0
2017-03-14T01:13:46.989Z,0
2017-03-14T01:14:48.263Z,0
2017-03-14T01:15:49.468Z,0
2017-03-14T01:16:50.769Z,0
2017-03-14T01:17:51.965Z,0
2017-03-14T01:18:53.242Z,0
2017-03-14T01:19:54.475Z,0
2017-03-14T01:20:55.788Z,0
2017-03-14T01:21:57.024Z,0
2017-03-14T01:22:58.380Z,0
2017-03-14T01:23:59.729Z,0
2017-03-14T01:25:01.019Z,0
2017-03-14T01:26:02.251Z,0
2017-03-14T01:27:03.566Z,0
2017-03-14T01:28:04.805Z,0
2017-03-14T01:29:06.041Z,0
2017-03-14T01:30:07.325Z,0
2017-03-14T01:31:08.562Z,0
2017-03-14T01:32:09.827Z,0
2017-03-14T01:33:11.162Z,0
2017-03-14T01:34:12.401Z,0
2017-03-14T01:35:13.659Z,0
2017-03-14T01:36:15.002Z,0
2017-03-14T01:37:16.237Z,0
2017-03-14T01:38:17.538Z,0
2017-03-14T01:39:18.779Z,0
2017-03-14T01:40:20.037Z,0
2017-03-14T01:41:21.299Z,0
2017-03-14T01:42:22.535Z,0
2017-03-14T01:43:23.803Z,0
2017-03-14T01:44:25.073Z,0
2017-03-14T01:45:26.302Z,0
2017-03-14T01:46:27.538Z,0
2017-03-14T01:47:28.789Z,0
2017-03-14T01:48:30.012Z,0
2017-03-14T01:49:31.255Z,0
2017-03-14T01:50:32.499Z,0
2017-03-14T01:51:33.735Z,0
2017-03-14T01:52:34.996Z,0
2017-03-14T01:53:36.243Z,0
2017-03-14T01:54:37.544Z,0
2017-03-14T01:55:38.880Z,0
2017-03-14T01:56:40.192Z,0
2017-03-14T01:57:41.471Z,0
2017-03-14T01:58:42.690Z,0
2017-03-14T01:59:43.955Z,0
2017-03-14T02:00:45.171Z,0
2017-03-14T02:01:46.510Z,0
2017-03-14T02:02:47.746Z,0
2017-03-14T02:03:48.976Z,0
2017-03-14T02:04:50.237Z,0
2017-03-14T02:05:51.473Z,0
2017-03-14T02:06:52.798Z,0
2017-03-14T02:07:54.047Z,0
2017-03-14T02:08:55.334Z,0
2017-03-14T02:09:56.606Z,0
2017-03-14T02:10:57.826Z,0
2017-03-14T02:11:59.071Z,0
2017-03-14T02:13:00.294Z,0
2017-03-14T02:14:01.538Z,0
2017-03-14T02:15:02.800Z,0
2017-03-14T02:16:04.158Z,0
2017-03-14T02:17:05.415Z,0
2017-03-14T02:18:06.634Z,0
2017-03-14T02:19:07.871Z,0
2017-03-14T02:20:09.112Z,0
2017-03-14T02:21:10.385Z,0
2017-03-14T02:22:11.616Z,0
2017-03-14T02:23:12.845Z,0
2017-03-14T02:24:14.082Z,0
2017-03-14T02:25:15.318Z,0
2017-03-14T02:26:16.567Z,0
2017-03-14T02:27:17.826Z,0
2017-03-14T02:28:19.050Z,0
2017-03-14T02:29:20.302Z,0
2017-03-14T02:30:21.530Z,0
2017-03-14T02:31:22.754Z,0
2017-03-14T02:32:23.988Z,0
2017-03-14T02:33:25.235Z,0
2017-03-14T02:34:26.455Z,0
2017-03-14T02:35:27.744Z,0
2017-03-14T02:36:28.996Z,0
2017-03-14T02:37:30.233Z,0
2017-03-14T02:38:31.482Z,0
2017-03-14T02:39:32.768Z,0
2017-03-14T02:40:33.986Z,0
2017-03-14T02:41:35.333Z,0
2017-03-14T02:42:36.543Z,0
2017-03-14T02:43:37.812Z,0
2017-03-14T02:44:39.016Z,0
2017-03-14T02:45:40.251Z,0
2017-03-14T02:46:41.476Z,0
2017-03-14T02:47:42.761Z,0
2017-03-14T02:48:44.008Z,0
2017-03-14T02:49:45.349Z,0
2017-03-14T02:50:46.581Z,0
2017-03-14T02:51:47.819Z,0
2017-03-14T02:52:49.047Z,0
2017-03-14T02:53:50.426Z,0
2017-03-14T02:54:51.587Z,0
2017-03-14T02:55:52.854Z,0
2017-03-14T02:56:54.087Z,0
2017-03-14T02:57:55.349Z,0
2017-03-14T02:58:56.580Z,0
2017-03-14T02:59:57.830Z,0
2017-03-14T03:00:59.071Z,0
2017-03-14T03:02:00.308Z,0
2017-03-14T03:03:01.549Z,0
2017-03-14T03:04:02.778Z,0
2017-03-14T03:05:04.007Z,0
2017-03-14T03:06:05.271Z,0
2017-03-14T03:07:06.603Z,0
2017-03-14T03:08:07.842Z,0
2017-03-14T03:09:09.090Z,0
2017-03-14T03:10:10.352Z,0
2017-03-14T03:11:11.564Z,0
2017-03-14T03:12:12.810Z,0
2017-03-14T03:13:14.054Z,0
2017-03-14T03:14:15.331Z,0
2017-03-14T03:15:16.569Z,0
2017-03-14T03:16:17.812Z,0
2017-03-14T03:17:19.086Z,0
2017-03-14T03:18:20.330Z,0
2017-03-14T03:19:21.600Z,0
2017-03-14T03:20:22.833Z,0
2017-03-14T03:21:24.071Z,0
2017-03-14T03:22:25.309Z,0
2017-03-14T03:23:26.542Z,0
2017-03-14T03:24:27.788Z,0
2017-03-14T03:25:29.041Z,0
2017-03-14T03:26:30.267Z,0
2017-03-14T03:27:31.680Z,0
2017-03-14T03:28:32.965Z,0
2017-03-14T03:29:34.236Z,0
2017-03-14T03:30:35.440Z,0
2017-03-14T03:31:36.674Z,0
2017-03-14T03:32:38.055Z,0
2017-03-14T03:33:39.308Z,0
2017-03-14T03:34:40.543Z,0
2017-03-14T03:35:41.845Z,0
2017-03-14T03:36:43.087Z,0
2017-03-14T03:37:44.310Z,0
2017-03-14T03:38:45.533Z,0
2017-03-14T03:39:46.863Z,0
2017-03-14T03:40:48.093Z,0
2017-03-14T03:41:49.336Z,0
2017-03-14T03:42:50.606Z,0
2017-03-14T03:43:51.845Z,0
2017-03-14T03:44:53.100Z,0
2017-03-14T03:45:54.414Z,0
2017-03-14T03:46:55.656Z,0
2017-03-14T03:47:56.891Z,0
2017-03-14T03:48:58.121Z,0
2017-03-14T03:49:59.362Z,0
2017-03-14T03:51:00.612Z,0
2017-03-14T03:52:01.833Z,0
2017-03-14T03:53:03.083Z,0
2017-03-14T03:54:04.328Z,0
2017-03-14T03:55:05.638Z,0
2017-03-14T03:56:06.832Z,0
2017-03-14T03:57:08.067Z,0
2017-03-14T03:58:09.393Z,0
2017-03-14T03:59:10.672Z,0
2017-03-14T04:00:11.913Z,0
2017-03-14T04:01:13.169Z,0
2017-03-14T04:02:14.401Z,0
2017-03-14T04:03:15.665Z,0
2017-03-14T04:04:16.953Z,0
2017-03-14T04:05:18.170Z,0
2017-03-14T04:06:19.410Z,0
2017-03-14T04:07:20.648Z,0
2017-03-14T04:08:21.889Z,0
2017-03-14T04:09:23.137Z,0
2017-03-14T04:10:24.369Z,0
2017-03-14T04:11:25.664Z,0
2017-03-14T04:12:26.921Z,0
2017-03-14T04:13:28.170Z,0
2017-03-14T04:14:29.418Z,0
2017-03-14T04:15:30.624Z,0
2017-03-14T04:16:31.861Z,0
2017-03-14T04:17:33.135Z,0
2017-03-14T04:18:34.369Z,0
2017-03-14T04:19:35.616Z,0
2017-03-14T04:20:36.857Z,0
2017-03-14T04:21:38.096Z,0
2017-03-14T04:22:39.348Z,0
2017-03-14T04:23:40.592Z,0
2017-03-14T04:24:41.944Z,0
2017-03-14T04:25:43.262Z,0
2017-03-14T04:26:44.493Z,0
2017-03-14T04:27:45.736Z,0
2017-03-14T04:28:46.998Z,0
2017-03-14T04:29:48.307Z,0
2017-03-14T04:30:49.513Z,0
2017-03-14T04:31:50.753Z,0
2017-03-14T04:32:51.984Z,0
2017-03-14T04:33:53.227Z,0
2017-03-14T04:34:54.478Z,0
2017-03-14T04:35:55.739Z,0
2017-03-14T04:36:57.035Z,0
2017-03-14T04:37:58.342Z,0
2017-03-14T04:38:59.589Z,0
2017-03-14T04:40:00.851Z,0
2017-03-14T04:41:02.099Z,0
2017-03-14T04:42:03.345Z,0
2017-03-14T04:43:04.697Z,0
2017-03-14T04:44:05.847Z,0
2017-03-14T04:45:07.128Z,0
2017-03-14T04:46:08.367Z,0
2017-03-14T04:47:09.654Z,0
2017-03-14T04:48:10.888Z,0
2017-03-14T04:49:12.124Z,0
2017-03-14T04:50:13.423Z,0
2017-03-14T04:51:14.732Z,0
2017-03-14T04:52:16.004Z,0
2017-03-14T04:53:17.241Z,0
2017-03-14T04:54:18.476Z,0
2017-03-14T04:55:19.722Z,0
2017-03-14T04:56:20.967Z,0
2017-03-14T04:57:22.198Z,0
2017-03-14T04:58:23.478Z,0
2017-03-14T04:59:24.698Z,0
2017-03-14T05:00:25.936Z,0
2017-03-14T05:01:27.236Z,0
2017-03-14T05:02:28.473Z,0
2017-03-14T05:03:29.778Z,0
2017-03-14T05:04:31.161Z,0
2017-03-14T05:05:32.405Z,0
2017-03-14T05:06:33.641Z,0
2017-03-14T05:07:34.889Z,0
2017-03-14T05:08:36.169Z,0
2017-03-14T05:09:37.417Z,0
2017-03-14T05:10:38.700Z,0
2017-03-14T05:11:40.006Z,0
2017-03-14T05:12:41.266Z,0
2017-03-14T05:13:42.505Z,0
2017-03-14T05:14:43.734Z,0
2017-03-14T05:15:45.107Z,0
2017-03-14T05:16:46.376Z,0
2017-03-14T05:17:47.631Z,0
2017-03-14T05:18:48.872Z,0
2017-03-14T05:19:50.103Z,0
2017-03-14T05:20:51.361Z,0
2017-03-14T05:21:52.607Z,0
2017-03-14T05:22:53.997Z,0
2017-03-14T05:23:55.277Z,0
2017-03-14T05:24:56.506Z,0
2017-03-14T05:25:57.742Z,0
2017-03-14T05:26:58.986Z,0
2017-03-14T05:28:00.244Z,0
2017-03-14T05:29:01.500Z,0
2017-03-14T05:30:02.732Z,0
2017-03-14T05:31:03.972Z,0
2017-03-14T05:32:05.234Z,0
2017-03-14T05:33:06.460Z,0
2017-03-14T05:34:07.869Z,0
2017-03-14T05:35:09.098Z,0
2017-03-14T05:36:10.352Z,0
2017-03-14T05:37:11.639Z,0
2017-03-14T05:38:12.860Z,0
2017-03-14T05:39:14.141Z,0
2017-03-14T05:40:15.422Z,0
2017-03-14T05:41:16.692Z,0
2017-03-14T05:42:17.909Z,0
2017-03-14T05:43:19.164Z,0
2017-03-14T05:44:20.403Z,5
2017-03-14T05:45:21.640Z,5
2017-03-14T05:46:22.949Z,5
2017-03-14T05:47:24.179Z,5
2017-03-14T05:48:25.453Z,5
2017-03-14T05:49:26.692Z,5
2017-03-14T05:50:27.967Z,5
2017-03-14T05:51:29.199Z,5
2017-03-14T05:52:30.427Z,5
2017-03-14T05:53:31.673Z,10
2017-03-14T05:54:32.916Z,10
2017-03-14T05:55:34.161Z,10
2017-03-14T05:56:35.406Z,10
2017-03-14T05:57:36.645Z,10
2017-03-14T05:58:37.884Z,10
2017-03-14T05:59:39.143Z,15
2017-03-14T06:00:40.438Z,15
2017-03-14T06:01:41.708Z,15
2017-03-14T06:02:42.949Z,15
2017-03-14T06:03:44.187Z,20
2017-03-14T06:04:45.498Z,20
2017-03-14T06:05:46.810Z,20
2017-03-14T06:06:48.029Z,20
2017-03-14T06:07:49.277Z,25
2017-03-14T06:08:50.536Z,25
2017-03-14T06:09:51.798Z,25
2017-03-14T06:10:53.031Z,30
2017-03-14T06:11:54.242Z,30
2017-03-14T06:12:55.488Z,30
2017-03-14T06:13:56.867Z,30
2017-03-14T06:14:58.135Z,30
2017-03-14T06:15:59.367Z,30
2017-03-14T06:17:00.590Z,30
2017-03-14T06:18:01.826Z,30
2017-03-14T06:19:03.168Z,30
2017-03-14T06:20:04.417Z,30
2017-03-14T06:21:05.674Z,35
2017-03-14T06:22:06.907Z,35
2017-03-14T06:23:08.153Z,35
2017-03-14T06:24:09.390Z,35
2017-03-14T06:25:10.651Z,40
2017-03-14T06:26:11.928Z,40
2017-03-14T06:27:13.171Z,40
2017-03-14T06:28:14.409Z,45
2017-03-14T06:29:15.646Z,45
2017-03-14T06:30:16.874Z,45
2017-03-14T06:31:18.108Z,50
2017-03-14T06:32:19.400Z,50
2017-03-14T06:33:20.603Z,55
2017-03-14T06:34:21.932Z,55
2017-03-14T06:35:23.171Z,55
2017-03-14T06:36:24.402Z,60
2017-03-14T06:37:25.645Z,65
2017-03-14T06:38:26.944Z,65
2017-03-14T06:39:28.250Z,70
2017-03-14T06:40:29.468Z,75
2017-03-14T06:41:30.709Z,80
2017-03-14T06:42:31.949Z,90
2017-03-14T06:43:33.225Z,95
2017-03-14T06:44:34.434Z,105
2017-03-14T06:45:35.914Z,115
2017-03-14T06:46:37.155Z,125
2017-03-14T06:47:38.395Z,130
2017-03-14T06:48:39.628Z,140
2017-03-14T06:49:41.022Z,155
2017-03-14T06:50:42.263Z,155
2017-03-14T06:51:43.569Z,160
2017-03-14T06:52:44.790Z,160
2017-03-14T06:53:46.043Z,165
2017-03-14T06:54:47.428Z,170
2017-03-14T06:55:48.645Z,175
2017-03-14T06:56:49.949Z,185
2017-03-14T06:57:51.237Z,195
2017-03-14T06:58:52.473Z,205
2017-03-14T06:59:53.751Z,215
2017-03-14T07:00:54.995Z,235
2017-03-14T07:01:56.305Z,255
2017-03-14T07:02:57.603Z,305
2017-03-14T07:03:58.864Z,285
2017-03-14T07:05:00.089Z,290
2017-03-14T07:06:01.368Z,305
2017-03-14T07:07:02.627Z,320
2017-03-14T07:08:04.050Z,300
2017-03-14T07:09:05.301Z,295
2017-03-14T07:10:06.532Z,300
2017-03-14T07:11:07.854Z,300
2017-03-14T07:12:09.094Z,300
2017-03-14T07:13:10.335Z,300
2017-03-14T07:14:11.570Z,305
2017-03-14T07:15:12.813Z,310
2017-03-14T07:16:14.050Z,340
2017-03-14T07:17:15.295Z,365
2017-03-14T07:18:16.530Z,335
2017-03-14T07:19:17.765Z,310
2017-03-14T07:20:19.146Z,310
2017-03-14T07:21:20.361Z,330
2017-03-14T07:22:21.664Z,390
2017-03-14T07:23:22.986Z,410
2017-03-14T07:24:24.235Z,415
2017-03-14T07:25:25.514Z,420
2017-03-14T07:26:26.771Z,425
2017-03-14T07:27:28.097Z,485
2017-03-14T07:28:29.346Z,515
2017-03-14T07:29:30.605Z,520
2017-03-14T07:30:31.838Z,540
2017-03-14T07:31:33.081Z,585
2017-03-14T07:32:34.320Z,610
2017-03-14T07:33:35.609Z,705
2017-03-14T07:34:36.989Z,755
2017-03-14T07:35:38.238Z,710
2017-03-14T07:36:39.561Z,645
2017-03-14T07:37:40.812Z,420
2017-03-14T07:38:42.053Z,350
2017-03-14T07:39:43.294Z,315
2017-03-14T07:40:44.539Z,290
2017-03-14T07:41:45.782Z,275
2017-03-14T07:42:47.016Z,260
2017-03-14T07:43:48.258Z,240
2017-03-14T07:44:49.509Z,245
2017-03-14T07:45:50.782Z,235
2017-03-14T07:46:52.035Z,220
2017-03-14T07:47:53.280Z,215
2017-03-14T07:48:54.533Z,210
2017-03-14T07:49:55.768Z,200
2017-03-14T07:50:57.135Z,205
2017-03-14T07:51:58.346Z,200
2017-03-14T07:52:59.571Z,205
2017-03-14T07:54:00.816Z,205
2017-03-14T07:55:02.107Z,210
2017-03-14T07:56:03.341Z,200
2017-03-14T07:57:04.563Z,200
2017-03-14T07:58:05.810Z,195
2017-03-14T07:59:07.051Z,195
2017-03-14T08:00:08.322Z,195
2017-03-14T08:01:09.639Z,195
2017-03-14T08:02:10.884Z,190
2017-03-14T08:03:12.130Z,195
2017-03-14T08:04:13.374Z,195
2017-03-14T08:05:14.641Z,195
2017-03-14T08:06:15.853Z,200
2017-03-14T08:07:17.307Z,195
2017-03-14T08:08:18.559Z,210
2017-03-14T08:09:19.803Z,215
2017-03-14T08:10:21.063Z,230
2017-03-14T08:11:22.287Z,240
2017-03-14T08:12:23.643Z,250
2017-03-14T08:13:24.878Z,250
2017-03-14T08:14:26.136Z,225
2017-03-14T08:15:27.407Z,220
2017-03-14T08:16:28.647Z,230
2017-03-14T08:17:29.986Z,230
2017-03-14T08:18:31.219Z,240
2017-03-14T08:19:32.481Z,240
2017-03-14T08:20:33.759Z,255
2017-03-14T08:21:34.960Z,270
2017-03-14T08:22:36.198Z,280
2017-03-14T08:23:37.574Z,275
2017-03-14T08:24:38.822Z,265
2017-03-14T08:25:40.116Z,265
2017-03-14T08:26:41.367Z,295
2017-03-14T08:27:42.617Z,320
2017-03-14T08:28:43.881Z,315
2017-03-14T08:29:45.190Z,315
2017-03-14T08:30:46.413Z,285
2017-03-14T08:31:47.646Z,265
2017-03-14T08:32:48.947Z,260
2017-03-14T08:33:50.186Z,260
2017-03-14T08:34:51.456Z,245
2017-03-14T08:35:52.694Z,260
2017-03-14T08:36:53.937Z,265
2017-03-14T08:37:55.193Z,250
2017-03-14T08:38:56.467Z,250
2017-03-14T08:39:57.688Z,265
2017-03-14T08:40:58.939Z,265
2017-03-14T08:42:00.254Z,260
2017-03-14T08:43:01.573Z,260
2017-03-14T08:44:02.820Z,245
2017-03-14T08:45:04.109Z,245
2017-03-14T08:46:05.339Z,240
2017-03-14T08:47:06.581Z,245
2017-03-14T08:48:07.828Z,245
2017-03-14T08:49:09.091Z,230
2017-03-14T08:50:10.317Z,220
2017-03-14T08:51:11.639Z,220
2017-03-14T08:52:12.874Z,220
2017-03-14T08:53:14.133Z,235
2017-03-14T08:54:15.376Z,235
2017-03-14T08:55:16.656Z,235
2017-03-14T08:56:17.903Z,240
2017-03-14T08:57:19.163Z,245
2017-03-14T08:58:20.422Z,265
2017-03-14T08:59:21.786Z,275
2017-03-14T09:00:23.023Z,270
2017-03-14T09:01:24.258Z,280
2017-03-14T09:02:25.532Z,280
2017-03-14T09:03:26.760Z,280
2017-03-14T09:04:28.007Z,280
2017-03-14T09:05:29.258Z,290
2017-03-14T09:06:30.509Z,280
2017-03-14T09:07:31.738Z,295
2017-03-14T09:08:32.979Z,285
2017-03-14T09:09:34.214Z,275
2017-03-14T09:10:35.553Z,270
2017-03-14T09:11:36.762Z,265
2017-03-14T09:12:38.010Z,270
2017-03-14T09:13:39.242Z,275
2017-03-14T09:14:40.531Z,280
2017-03-14T09:15:41.770Z,280
2017-03-14T09:16:43.099Z,285
2017-03-14T09:17:44.357Z,295
2017-03-14T09:18:45.639Z,310
2017-03-14T09:19:46.876Z,315
2017-03-14T09:20:48.133Z,320
2017-03-14T09:21:49.471Z,315
2017-03-14T09:22:50.736Z,320
2017-03-14T09:23:51.987Z,330
2017-03-14T09:24:53.212Z,345
2017-03-14T09:25:54.451Z,360
2017-03-14T09:26:55.688Z,385
2017-03-14T09:27:56.944Z,395
2017-03-14T09:28:58.221Z,410
2017-03-14T09:29:59.544Z,430
2017-03-14T09:31:00.786Z,500
2017-03-14T09:32:02.009Z,555
2017-03-14T09:33:03.246Z,635
2017-03-14T09:34:04.482Z,880
2017-03-14T09:35:05.754Z,1345
2017-03-14T09:36:07.141Z,1655
2017-03-14T09:37:08.380Z,1010
2017-03-14T09:38:09.622Z,1085
2017-03-14T09:39:10.867Z,1405
2017-03-14T09:40:12.127Z,845
2017-03-14T09:41:13.452Z,925
2017-03-14T09:42:14.691Z,1035
2017-03-14T09:43:15.941Z,1230
2017-03-14T09:44:17.178Z,1360
2017-03-14T09:45:18.439Z,1240
2017-03-14T09:46:19.714Z,1500
2017-03-14T09:47:21.016Z,1330
2017-03-14T09:48:22.223Z,1090
2017-03-14T09:49:23.484Z,1615
2017-03-14T09:50:24.724Z,1560
2017-03-14T09:51:25.964Z,1430
2017-03-14T09:52:27.287Z,1450
2017-03-14T09:53:28.496Z,1435
2017-03-14T09:54:29.777Z,1400
2017-03-14T09:55:31.101Z,1290
2017-03-14T09:56:32.356Z,1395
2017-03-14T09:57:33.728Z,1425
2017-03-14T09:58:34.966Z,1385
2017-03-14T09:59:36.206Z,1430
2017-03-14T10:00:37.454Z,1395
2017-03-14T10:01:38.698Z,1430
2017-03-14T10:02:39.971Z,1455
2017-03-14T10:03:41.222Z,1490
2017-03-14T10:04:42.468Z,1520
2017-03-14T10:05:43.910Z,1575
2017-03-14T10:06:45.188Z,1625
2017-03-14T10:07:46.517Z,1650
2017-03-14T10:08:47.751Z,1675
2017-03-14T10:09:49.000Z,1625
2017-03-14T10:10:50.248Z,1520
2017-03-14T10:11:51.634Z,1660
2017-03-14T10:12:52.926Z,1695
2017-03-14T10:13:54.184Z,1680
2017-03-14T10:14:55.441Z,1665
2017-03-14T10:15:56.692Z,1620
2017-03-14T10:16:57.943Z,1630
2017-03-14T10:17:59.214Z,1620
2017-03-14T10:19:00.471Z,1665
2017-03-14T10:20:01.821Z,1685
2017-03-14T10:21:03.085Z,1740
2017-03-14T10:22:04.340Z,1725
2017-03-14T10:23:05.594Z,1645
2017-03-14T10:24:06.859Z,1710
2017-03-14T10:25:08.166Z,1645
2017-03-14T10:26:09.417Z,1510
2017-03-14T10:27:10.677Z,1835
2017-03-14T10:28:11.923Z,1815
2017-03-14T10:29:13.193Z,2070
2017-03-14T10:30:14.453Z,2070
2017-03-14T10:31:15.777Z,2200
2017-03-14T10:32:17.032Z,1835
2017-03-14T10:33:18.294Z,2405
2017-03-14T10:34:19.557Z,2370
2017-03-14T10:35:20.800Z,2360
2017-03-14T10:36:22.058Z,2260
2017-03-14T10:37:23.304Z,2150
2017-03-14T10:38:24.552Z,2200
2017-03-14T10:39:25.834Z,2185
2017-03-14T10:40:27.072Z,2150
2017-03-14T10:41:28.317Z,2120
2017-03-14T10:42:29.591Z,1665
2017-03-14T10:43:30.849Z,1255
2017-03-14T10:44:32.176Z,1230
2017-03-14T10:45:33.440Z,1985
2017-03-14T10:46:34.688Z,1940
2017-03-14T10:47:35.937Z,1970
2017-03-14T10:48:37.242Z,1845
2017-03-14T10:49:38.583Z,1870
2017-03-14T10:50:39.833Z,1565
2017-03-14T10:51:41.076Z,815
2017-03-14T10:52:42.325Z,595
2017-03-14T10:53:43.585Z,555
2017-03-14T10:54:44.857Z,545
2017-03-14T10:55:46.179Z,540
2017-03-14T10:56:47.450Z,530
2017-03-14T10:57:48.717Z,520
2017-03-14T10:58:49.946Z,515
2017-03-14T10:59:51.217Z,500
2017-03-14T11:00:52.458Z,480
2017-03-14T11:01:53.746Z,475
2017-03-14T11:02:55.093Z,480
2017-03-14T11:03:56.382Z,470
2017-03-14T11:04:57.681Z,485
2017-03-14T11:05:58.933Z,480
2017-03-14T11:07:00.220Z,470
2017-03-14T11:08:01.489Z,465
2017-03-14T11:09:02.763Z,465
2017-03-14T11:10:03.990Z,465
2017-03-14T11:11:05.236Z,460
2017-03-14T11:12:06.487Z,460
2017-03-14T11:13:07.729Z,475
2017-03-14T11:14:09.060Z,485
2017-03-14T11:15:10.275Z,485
2017-03-14T11:16:11.542Z,480
2017-03-14T11:17:12.780Z,475
2017-03-14T11:18:14.035Z,470
2017-03-14T11:19:15.283Z,475
2017-03-14T11:20:16.526Z,470
2017-03-14T11:21:17.809Z,460
2017-03-14T11:22:19.095Z,450
2017-03-14T11:23:20.331Z,445
2017-03-14T11:24:21.596Z,455
2017-03-14T11:25:22.817Z,445
2017-03-14T11:26:24.072Z,440
2017-03-14T11:27:25.316Z,440
2017-03-14T11:28:26.554Z,470
2017-03-14T11:29:27.821Z,465
2017-03-14T11:30:29.065Z,485
2017-03-14T11:31:30.328Z,520
2017-03-14T11:32:31.674Z,570
2017-03-14T11:33:32.932Z,560
2017-03-14T11:34:34.175Z,540
2017-03-14T11:35:35.451Z,585
2017-03-14T11:36:36.697Z,615
2017-03-14T11:37:37.938Z,615
2017-03-14T11:38:39.186Z,625
2017-03-14T11:39:40.422Z,600
2017-03-14T11:40:41.681Z,565
2017-03-14T11:41:42.903Z,575
2017-03-14T11:42:44.143Z,620
2017-03-14T11:43:45.408Z,645
2017-03-14T11:44:46.641Z,640
2017-03-14T11:45:47.904Z,600
2017-03-14T11:46:49.177Z,605
2017-03-14T11:47:50.424Z,685
2017-03-14T11:48:51.680Z,695
2017-03-14T11:49:52.924Z,690
2017-03-14T11:50:54.169Z,685
2017-03-14T11:51:55.502Z,715
2017-03-14T11:52:56.744Z,710
2017-03-14T11:53:58.006Z,705
2017-03-14T11:54:59.289Z,680
2017-03-14T11:56:00.511Z,685
2017-03-14T11:57:01.902Z,665
2017-03-14T11:58:03.171Z,665
2017-03-14T11:59:04.510Z,620
2017-03-14T12:00:05.802Z,630
2017-03-14T12:01:07.009Z,600
2017-03-14T12:02:08.257Z,605
2017-03-14T12:03:09.548Z,570
2017-03-14T12:04:10.888Z,560
2017-03-14T12:05:12.148Z,545
2017-03-14T12:06:13.395Z,495
2017-03-14T12:07:14.643Z,495
2017-03-14T12:08:15.955Z,555
2017-03-14T12:09:17.207Z,540
2017-03-14T12:10:18.459Z,545
2017-03-14T12:11:19.781Z,560
2017-03-14T12:12:21.051Z,595
2017-03-14T12:13:22.297Z,595
2017-03-14T12:14:23.571Z,605
2017-03-14T12:15:24.808Z,590
2017-03-14T12:16:26.114Z,575
2017-03-14T12:17:27.363Z,580
2017-03-14T12:18:28.583Z,575
2017-03-14T12:19:29.833Z,575
2017-03-14T12:20:31.079Z,585
2017-03-14T12:21:32.330Z,585
2017-03-14T12:22:33.627Z,590
2017-03-14T12:23:34.846Z,580
2017-03-14T12:24:36.091Z,580
2017-03-14T12:25:37.338Z,570
2017-03-14T12:26:38.591Z,555
2017-03-14T12:27:39.876Z,550
2017-03-14T12:28:41.137Z,560
2017-03-14T12:29:42.377Z,560
2017-03-14T12:30:43.682Z,580
2017-03-14T12:31:44.931Z,585
2017-03-14T12:32:46.177Z,590
2017-03-14T12:33:47.429Z,590
2017-03-14T12:34:48.671Z,600
2017-03-14T12:35:49.918Z,605
2017-03-14T12:36:51.161Z,595
2017-03-14T12:37:52.408Z,585
2017-03-14T12:38:53.702Z,575
2017-03-14T12:39:54.973Z,560
2017-03-14T12:40:56.219Z,550
2017-03-14T12:41:57.465Z,535
2017-03-14T12:42:58.709Z,510
2017-03-14T12:43:59.954Z,490
2017-03-14T12:45:01.228Z,465
2017-03-14T12:46:02.482Z,450
2017-03-14T12:47:03.810Z,425
2017-03-14T12:48:05.054Z,410
2017-03-14T12:49:06.316Z,400
2017-03-14T12:50:07.648Z,395
2017-03-14T12:51:08.881Z,390
2017-03-14T12:52:10.131Z,395
2017-03-14T12:53:11.485Z,415
2017-03-14T12:54:12.665Z,420
2017-03-14T12:55:13.924Z,445
2017-03-14T12:56:15.180Z,440
2017-03-14T12:57:16.448Z,455
2017-03-14T12:58:17.713Z,455
2017-03-14T12:59:18.962Z,440
2017-03-14T13:00:20.249Z,440
2017-03-14T13:01:21.559Z,450
2017-03-14T13:02:22.832Z,435
2017-03-14T13:03:24.071Z,430
2017-03-14T13:04:25.326Z,410
2017-03-14T13:05:26.575Z,410
2017-03-14T13:06:27.812Z,400
2017-03-14T13:07:29.055Z,395
2017-03-14T13:08:30.325Z,395
2017-03-14T13:09:31.573Z,395
2017-03-14T13:10:32.836Z,400
2017-03-14T13:11:34.070Z,405
2017-03-14T13:12:35.315Z,390
2017-03-14T13:13:36.563Z,370
2017-03-14T13:14:37.824Z,365
2017-03-14T13:15:39.049Z,360
2017-03-14T13:16:40.307Z,365
2017-03-14T13:17:41.671Z,345
2017-03-14T13:18:42.923Z,330
2017-03-14T13:19:44.179Z,330
2017-03-14T13:20:45.514Z,320
2017-03-14T13:21:46.755Z,320
2017-03-14T13:22:48.004Z,330
2017-03-14T13:23:49.272Z,325
2017-03-14T13:24:50.533Z,320
2017-03-14T13:25:51.758Z,320
2017-03-14T13:26:53.057Z,315
2017-03-14T13:27:54.273Z,345
2017-03-14T13:28:55.573Z,350
2017-03-14T13:29:56.821Z,330
2017-03-14T13:30:58.058Z,345
2017-03-14T13:31:59.407Z,340
2017-03-14T13:33:00.656Z,330
2017-03-14T13:34:01.899Z,310
2017-03-14T13:35:03.144Z,300
2017-03-14T13:36:04.382Z,320
2017-03-14T13:37:05.635Z,330
2017-03-14T13:38:06.908Z,320
2017-03-14T13:39:08.137Z,290
2017-03-14T13:40:09.378Z,285
2017-03-14T13:41:10.644Z,285
2017-03-14T13:42:11.912Z,295
2017-03-14T13:43:13.145Z,290
2017-03-14T13:44:14.394Z,290
2017-03-14T13:45:15.691Z,300
2017-03-14T13:46:16.942Z,290
2017-03-14T13:47:18.210Z,310
2017-03-14T13:48:19.457Z,335
2017-03-14T13:49:20.714Z,345
2017-03-14T13:50:21.960Z,330
2017-03-14T13:51:23.201Z,325
2017-03-14T13:52:24.482Z,325
2017-03-14T13:53:25.815Z,325
2017-03-14T13:54:27.117Z,320
2017-03-14T13:55:28.342Z,330
2017-03-14T13:56:29.614Z,340
2017-03-14T13:57:30.895Z,330
2017-03-14T13:58:32.148Z,305
2017-03-14T13:59:33.391Z,295
2017-03-14T14:00:34.650Z,290
2017-03-14T14:01:35.915Z,310
2017-03-14T14:02:37.166Z,325
2017-03-14T14:03:38.524Z,325
2017-03-14T14:04:39.957Z,355
2017-03-14T14:05:41.219Z,365
2017-03-14T14:06:42.472Z,355
2017-03-14T14:07:43.744Z,375
2017-03-14T14:08:44.994Z,375
2017-03-14T14:09:46.359Z,380
2017-03-14T14:10:47.607Z,390
2017-03-14T14:11:48.851Z,390
2017-03-14T14:12:50.135Z,390
2017-03-14T14:13:51.372Z,380
2017-03-14T14:14:52.594Z,360
2017-03-14T14:15:53.940Z,350
2017-03-14T14:16:55.193Z,345
2017-03-14T14:17:56.438Z,340
2017-03-14T14:18:57.739Z,340
2017-03-14T14:19:58.999Z,340
2017-03-14T14:21:00.321Z,340
2017-03-14T14:22:01.599Z,340
2017-03-14T14:23:02.855Z,340
2017-03-14T14:24:04.133Z,340
2017-03-14T14:25:05.371Z,340
2017-03-14T14:26:06.636Z,335
2017-03-14T14:27:07.869Z,335